createdAt,value
2024-01-11T00:01:05.921Z,-4.76
2024-01-11T00:03:32.911Z,-4.75
2024-01-11T00:06:02.285Z,-4.67
2024-01-11T00:08:29.738Z,-4.79
2024-01-11T00:10:57.377Z,-4.81
2024-01-11T00:13:24.789Z,-4.72
2024-01-11T00:15:51.867Z,-4.77
2024-01-11T00:18:19.219Z,-4.72
2024-01-11T00:20:46.687Z,-4.77
2024-01-11T00:23:14.446Z,-4.74
2024-01-11T00:25:41.732Z,-4.53
2024-01-11T00:28:08.793Z,-4.51
2024-01-11T00:30:36.105Z,-4.48
2024-01-11T00:33:04.357Z,-4.73
2024-01-11T00:35:32.511Z,-4.67
2024-01-11T00:38:00.162Z,-4.59
2024-01-11T00:40:27.245Z,-4.72
2024-01-11T00:42:54.350Z,-4.96
2024-01-11T00:45:22.108Z,-4.68
2024-01-11T00:47:49.205Z,-4.90
2024-01-11T00:50:16.458Z,-4.75
2024-01-11T00:52:43.740Z,-4.69
2024-01-11T00:55:10.970Z,-4.71
2024-01-11T00:57:38.297Z,-4.61
2024-01-11T01:00:06.539Z,-4.74
2024-01-11T01:02:34.094Z,-4.87
2024-01-11T01:05:01.373Z,-5.02
2024-01-11T01:07:28.916Z,-5.03
2024-01-11T01:09:56.166Z,-4.87
2024-01-11T01:12:23.155Z,-4.80
2024-01-11T01:14:50.228Z,-4.91
2024-01-11T01:17:17.730Z,-5.04
2024-01-11T01:19:45.832Z,-4.90
2024-01-11T01:22:13.220Z,-4.87
2024-01-11T01:24:40.533Z,-4.82
2024-01-11T01:27:07.910Z,-4.91
2024-01-11T01:29:35.294Z,-5.35
2024-01-11T01:32:02.848Z,-5.14
2024-01-11T01:34:30.305Z,-5.05
2024-01-11T01:36:57.745Z,-5.00
2024-01-11T01:39:25.216Z,-5.07
2024-01-11T01:41:52.513Z,-5.03
2024-01-11T01:44:20.041Z,-5.07
2024-01-11T01:46:48.633Z,-5.09
2024-01-11T01:49:16.113Z,-5.18
2024-01-11T01:51:43.393Z,-5.17
2024-01-11T01:54:11.134Z,-5.09
2024-01-11T01:56:38.239Z,-5.14
2024-01-11T01:59:06.103Z,-5.17
2024-01-11T02:04:21.860Z,-5.06
2024-01-11T02:06:49.637Z,-5.32
2024-01-11T02:09:18.856Z,-5.38
2024-01-11T02:11:46.837Z,-5.17
2024-01-11T02:14:14.504Z,-5.29
2024-01-11T02:16:43.561Z,-5.18
2024-01-11T02:19:15.584Z,-5.24
2024-01-11T02:21:45.019Z,-5.32
2024-01-11T02:24:13.099Z,-5.24
2024-01-11T02:27:01.514Z,-5.45
2024-01-11T02:29:29.899Z,-5.55
2024-01-11T02:31:57.803Z,-5.49
2024-01-11T02:34:30.292Z,-5.40
2024-01-11T02:36:57.620Z,-5.59
2024-01-11T02:39:26.503Z,-5.68
2024-01-11T02:41:57.285Z,-5.85
2024-01-11T02:44:24.635Z,-5.99
2024-01-11T02:46:51.747Z,-5.88
2024-01-11T02:49:19.423Z,-5.74
2024-01-11T02:51:46.782Z,-6.17
2024-01-11T02:54:14.208Z,-6.01
2024-01-11T02:56:41.461Z,-5.89
2024-01-11T02:59:09.270Z,-5.95
2024-01-11T03:01:37.361Z,-5.95
2024-01-11T03:04:04.876Z,-5.83
2024-01-11T03:06:32.981Z,-6.02
2024-01-11T03:09:00.724Z,-5.88
2024-01-11T03:11:29.216Z,-5.92
2024-01-11T03:13:57.694Z,-5.97
2024-01-11T03:16:25.025Z,-6.15
2024-01-11T03:18:52.136Z,-6.32
2024-01-11T03:21:19.970Z,-6.37
2024-01-11T03:23:46.996Z,-6.34
2024-01-11T03:26:20.236Z,-6.43
2024-01-11T03:28:47.377Z,-6.39
2024-01-11T03:31:14.479Z,-6.32
2024-01-11T03:33:42.059Z,-6.13
2024-01-11T03:36:10.606Z,-6.17
2024-01-11T03:38:38.529Z,-6.03
2024-01-11T03:41:11.513Z,-6.06
2024-01-11T03:43:39.479Z,-6.07
2024-01-11T03:46:07.243Z,-5.95
2024-01-11T03:48:34.743Z,-6.38
2024-01-11T03:51:01.918Z,-6.35
2024-01-11T03:53:30.272Z,-6.50
2024-01-11T03:55:57.404Z,-6.54
2024-01-11T03:58:25.140Z,-6.54
2024-01-11T04:14:57.345Z,-5.59
2024-01-11T04:17:24.518Z,-5.66
2024-01-11T04:19:51.648Z,-5.60
2024-01-11T04:22:18.816Z,-5.65
2024-01-11T04:24:45.841Z,-5.68
2024-01-11T04:27:13.375Z,-5.68
2024-01-11T04:29:40.458Z,-5.72
2024-01-11T04:32:07.459Z,-5.67
2024-01-11T04:34:34.848Z,-5.81
2024-01-11T04:37:02.212Z,-5.64
2024-01-11T04:39:30.190Z,-5.66
2024-01-11T04:41:57.623Z,-5.64
2024-01-11T04:44:27.876Z,-5.57
2024-01-11T04:46:55.183Z,-5.80
2024-01-11T04:49:22.821Z,-5.83
2024-01-11T04:51:49.905Z,-5.75
2024-01-11T04:54:16.913Z,-5.82
2024-01-11T04:56:43.933Z,-5.66
2024-01-11T04:59:10.924Z,-5.54
2024-01-11T05:01:38.238Z,-5.68
2024-01-11T05:04:05.446Z,-5.79
2024-01-11T05:06:32.851Z,-5.72
2024-01-11T05:09:00.248Z,-5.65
2024-01-11T05:11:28.139Z,-5.72
2024-01-11T05:13:55.531Z,-5.67
2024-01-11T05:16:28.660Z,-6.04
2024-01-11T05:18:58.066Z,-5.98
2024-01-11T05:21:25.727Z,-5.88
2024-01-11T05:23:54.162Z,-5.99
2024-01-11T05:26:22.043Z,-5.92
2024-01-11T05:28:49.498Z,-5.99
2024-01-11T05:31:18.052Z,-5.93
2024-01-11T05:33:46.103Z,-5.93
2024-01-11T05:36:13.239Z,-6.26
2024-01-11T05:38:41.995Z,-6.22
2024-01-11T05:41:10.253Z,-6.37
2024-01-11T05:43:39.222Z,-6.43
2024-01-11T05:46:06.746Z,-6.38
2024-01-11T05:48:33.723Z,-6.35
2024-01-11T05:51:01.533Z,-6.39
2024-01-11T05:53:29.376Z,-6.28
2024-01-11T05:55:56.727Z,-6.23
2024-01-11T05:58:24.230Z,-6.09
2024-01-11T06:00:51.765Z,-5.91
2024-01-11T06:03:18.940Z,-5.92
2024-01-11T06:05:46.188Z,-5.78
2024-01-11T06:08:13.604Z,-5.57
2024-01-11T06:10:40.985Z,-5.62
2024-01-11T06:13:08.162Z,-5.74
2024-01-11T06:15:35.494Z,-5.95
2024-01-11T06:18:03.021Z,-6.09
2024-01-11T06:20:30.134Z,-5.73
2024-01-11T06:22:57.700Z,-5.72
2024-01-11T06:25:24.967Z,-5.75
2024-01-11T06:27:52.287Z,-5.88
2024-01-11T06:30:19.493Z,-5.65
2024-01-11T06:32:46.618Z,-5.48
2024-01-11T06:35:13.856Z,-4.83
2024-01-11T06:37:40.853Z,-4.24
2024-01-11T06:40:09.777Z,-3.45
2024-01-11T06:42:37.426Z,-2.80
2024-01-11T06:45:04.870Z,-1.95
2024-01-11T06:47:32.114Z,-1.80
2024-01-11T06:49:59.610Z,-0.88
2024-01-11T06:52:26.899Z,-0.34
2024-01-11T06:54:53.978Z,-0.34
2024-01-11T06:57:21.020Z,-0.57
2024-01-11T06:59:48.208Z,0.24
2024-01-11T07:04:57.465Z,1.11
2024-01-11T07:07:24.381Z,1.50
2024-01-11T07:09:51.628Z,1.55
2024-01-11T07:12:19.007Z,1.78
2024-01-11T07:14:46.066Z,2.12
2024-01-11T07:17:13.176Z,2.07
2024-01-11T07:19:40.124Z,4.09
2024-01-11T07:22:07.181Z,4.34
2024-01-11T07:24:39.244Z,3.34
2024-01-11T07:27:07.761Z,4.90
2024-01-11T07:29:35.922Z,4.52
2024-01-11T07:32:03.330Z,3.97
2024-01-11T07:34:31.195Z,4.63
2024-01-11T07:36:58.675Z,5.40
2024-01-11T07:39:25.848Z,5.25
2024-01-11T07:41:54.165Z,6.25
2024-01-11T07:44:22.318Z,6.52
2024-01-11T07:46:53.537Z,5.78
2024-01-11T07:49:22.408Z,5.86
2024-01-11T07:51:49.832Z,6.98
2024-01-11T07:54:17.518Z,6.62
2024-01-11T07:56:45.390Z,6.73
2024-01-11T07:59:16.555Z,6.64
2024-01-11T08:01:43.923Z,7.80
2024-01-11T08:04:11.617Z,7.15
2024-01-11T08:06:39.657Z,6.93
2024-01-11T08:09:07.024Z,5.98
2024-01-11T08:11:36.839Z,5.77
2024-01-11T08:14:07.462Z,7.17
2024-01-11T08:16:34.839Z,6.84
2024-01-11T08:19:05.178Z,6.58
2024-01-11T08:21:32.353Z,6.55
2024-01-11T08:24:02.859Z,6.83
2024-01-11T08:26:31.818Z,6.64
2024-01-11T08:28:59.088Z,6.21
2024-01-11T08:31:26.493Z,5.76
2024-01-11T08:33:55.024Z,5.03
2024-01-11T08:36:22.329Z,5.28
2024-01-11T08:38:49.965Z,4.87
2024-01-11T08:41:17.007Z,4.64
2024-01-11T08:43:44.145Z,4.34
2024-01-11T08:46:11.174Z,4.13
2024-01-11T08:48:38.655Z,4.18
2024-01-11T08:51:06.361Z,5.06
2024-01-11T08:53:33.573Z,5.63
2024-01-11T08:56:01.308Z,5.33
2024-01-11T08:58:28.341Z,4.89
2024-01-11T09:00:55.505Z,4.99
2024-01-11T09:03:22.688Z,4.36
2024-01-11T09:05:50.246Z,4.52
2024-01-11T09:08:17.672Z,4.28
2024-01-11T09:10:45.067Z,3.97
2024-01-11T09:13:14.005Z,4.34
2024-01-11T09:15:42.049Z,4.18
2024-01-11T09:18:09.488Z,4.83
2024-01-11T09:20:36.987Z,4.70
2024-01-11T09:23:05.415Z,4.28
2024-01-11T09:25:32.845Z,3.78
2024-01-11T09:28:00.959Z,3.80
2024-01-11T09:30:28.748Z,4.07
2024-01-11T09:32:57.647Z,4.09
2024-01-11T09:35:24.974Z,4.09
2024-01-11T09:37:53.209Z,4.46
2024-01-11T09:40:20.657Z,3.55
2024-01-11T09:42:47.790Z,3.62
2024-01-11T09:45:18.740Z,4.51
2024-01-11T09:47:50.233Z,4.10
2024-01-11T09:50:21.627Z,4.35
2024-01-11T09:52:50.278Z,4.19
2024-01-11T09:55:18.108Z,4.32
2024-01-11T09:57:50.095Z,4.30
2024-01-11T10:00:23.809Z,3.70
2024-01-11T10:02:51.221Z,3.66
2024-01-11T10:05:19.476Z,3.82
2024-01-11T10:07:49.594Z,4.08
2024-01-11T10:10:19.460Z,4.03
2024-01-11T10:12:46.545Z,3.90
2024-01-11T10:15:15.192Z,4.46
2024-01-11T10:17:45.837Z,4.91
2024-01-11T10:20:15.974Z,3.88
2024-01-11T10:22:44.420Z,4.20
2024-01-11T10:25:17.111Z,4.36
2024-01-11T10:27:47.031Z,4.21
2024-01-11T10:30:18.459Z,3.82
2024-01-11T10:32:46.851Z,4.53
2024-01-11T10:35:14.792Z,4.58
2024-01-11T10:37:44.313Z,4.22
2024-01-11T10:40:14.809Z,4.66
2024-01-11T10:42:47.154Z,4.53
2024-01-11T10:45:19.758Z,4.40
2024-01-11T10:47:56.043Z,4.35
2024-01-11T10:50:25.370Z,4.11
2024-01-11T10:53:31.745Z,3.94
2024-01-11T10:56:00.822Z,4.12
2024-01-11T10:58:28.816Z,4.30
2024-01-11T11:00:56.835Z,4.25
2024-01-11T11:03:27.744Z,3.89
2024-01-11T11:05:57.283Z,4.53
2024-01-11T11:08:26.326Z,3.79
2024-01-11T11:11:00.417Z,3.81
2024-01-11T11:13:28.608Z,4.03
2024-01-11T11:15:57.620Z,3.86
2024-01-11T11:18:26.334Z,4.36
2024-01-11T11:20:55.623Z,4.31
2024-01-11T11:23:22.726Z,4.04
2024-01-11T11:25:50.685Z,3.63
2024-01-11T11:28:19.963Z,4.19
2024-01-11T11:30:50.351Z,4.07
2024-01-11T11:33:20.114Z,4.20
2024-01-11T11:35:48.358Z,4.42
2024-01-11T11:38:23.008Z,3.86
2024-01-11T11:40:53.880Z,3.59
2024-01-11T11:43:23.095Z,2.94
2024-01-11T11:45:52.976Z,3.08
2024-01-11T11:48:40.211Z,3.35
2024-01-11T11:51:07.385Z,3.07
2024-01-11T11:53:39.003Z,2.87
2024-01-11T11:56:06.934Z,3.03
2024-01-11T11:58:35.771Z,2.60
2024-01-11T12:04:32.401Z,2.62
2024-01-11T12:06:59.481Z,2.36
2024-01-11T12:09:26.763Z,2.21
2024-01-11T12:12:02.168Z,2.53
2024-01-11T12:14:34.806Z,2.64
2024-01-11T12:17:02.054Z,2.45
2024-01-11T12:19:29.836Z,2.02
2024-01-11T12:21:57.281Z,1.94
2024-01-11T12:24:25.112Z,2.38
2024-01-11T12:26:53.492Z,2.00
2024-01-11T12:29:21.844Z,2.06
2024-01-11T12:31:49.263Z,2.13
2024-01-11T12:34:18.080Z,1.89
2024-01-11T12:36:45.194Z,1.91
2024-01-11T12:39:14.660Z,2.03
2024-01-11T12:41:43.538Z,1.86
2024-01-11T12:44:11.186Z,1.51
2024-01-11T12:46:38.481Z,1.66
2024-01-11T12:49:05.557Z,1.45
2024-01-11T12:51:32.504Z,1.50
2024-01-11T12:53:59.853Z,1.93
2024-01-11T12:56:26.897Z,1.63
2024-01-11T12:59:07.604Z,1.52
2024-01-11T13:01:34.700Z,1.53
2024-01-11T13:04:06.295Z,1.42
2024-01-11T13:06:35.829Z,1.32
2024-01-11T13:09:03.402Z,1.53
2024-01-11T13:11:30.623Z,1.32
2024-01-11T13:13:59.274Z,1.50
2024-01-11T13:16:26.784Z,1.59
2024-01-11T13:18:53.803Z,1.33
2024-01-11T13:21:20.981Z,1.54
2024-01-11T13:23:48.149Z,1.53
2024-01-11T13:26:15.429Z,1.63
2024-01-11T13:28:42.315Z,1.55
2024-01-11T13:31:11.276Z,1.47
2024-01-11T13:33:38.732Z,1.39
2024-01-11T13:36:06.375Z,1.51
2024-01-11T13:38:33.285Z,1.40
2024-01-11T13:41:00.266Z,1.22
2024-01-11T13:43:27.710Z,1.42
2024-01-11T13:45:56.213Z,1.33
2024-01-11T13:48:23.469Z,1.24
2024-01-11T13:50:50.688Z,0.93
2024-01-11T13:53:18.385Z,0.72
2024-01-11T13:55:45.407Z,0.86
2024-01-11T13:58:14.001Z,0.80
2024-01-11T14:00:40.925Z,0.61
2024-01-11T14:03:10.180Z,0.35
2024-01-11T14:05:38.415Z,0.70
2024-01-11T14:08:09.279Z,0.56
2024-01-11T14:10:36.819Z,0.53
2024-01-11T14:13:04.447Z,0.30
2024-01-11T14:15:33.959Z,0.27
2024-01-11T14:18:01.243Z,0.39
2024-01-11T14:20:28.994Z,0.13
2024-01-11T14:22:56.334Z,0.14
2024-01-11T14:25:26.306Z,-0.05
2024-01-11T14:27:54.369Z,0.03
2024-01-11T14:30:24.311Z,0.06
2024-01-11T14:32:51.569Z,-0.30
2024-01-11T14:35:19.791Z,-0.70
2024-01-11T14:37:46.968Z,-0.58
2024-01-11T14:40:14.195Z,-0.88
2024-01-11T14:42:41.736Z,-0.94
2024-01-11T14:45:09.371Z,-0.97
2024-01-11T14:47:37.317Z,-0.91
2024-01-11T14:50:06.069Z,-0.90
2024-01-11T14:52:33.460Z,-1.17
2024-01-11T14:55:00.792Z,-1.15
2024-01-11T14:57:27.933Z,-1.51
2024-01-11T14:59:55.865Z,-1.60
2024-01-11T15:02:23.335Z,-1.43
2024-01-11T15:04:51.233Z,-1.32
2024-01-11T15:07:18.264Z,-1.46
2024-01-11T15:09:45.628Z,-1.46
2024-01-11T15:12:12.682Z,-1.33
2024-01-11T15:14:39.827Z,-1.49
2024-01-11T15:17:07.464Z,-1.53
2024-01-11T15:19:34.727Z,-1.49
2024-01-11T15:22:02.140Z,-1.54
2024-01-11T15:24:30.154Z,-1.52
2024-01-11T15:26:57.532Z,-1.51
2024-01-11T15:29:24.623Z,-1.43
2024-01-11T15:31:52.180Z,-1.38
2024-01-11T15:34:20.298Z,-1.47
2024-01-11T15:36:48.035Z,-1.41
2024-01-11T15:39:24.846Z,-1.51
2024-01-11T15:41:57.616Z,-1.38
2024-01-11T15:44:28.606Z,-1.53
2024-01-11T15:46:57.673Z,-1.33
2024-01-11T15:49:25.207Z,-1.54
2024-01-11T15:51:52.775Z,-1.59
2024-01-11T15:54:22.383Z,-1.67
2024-01-11T15:56:50.374Z,-1.64
2024-01-11T15:59:18.074Z,-1.66
2024-01-11T16:01:51.508Z,-1.72
2024-01-11T16:04:27.832Z,-1.89
2024-01-11T16:06:57.841Z,-1.80
2024-01-11T16:09:25.452Z,-1.83
2024-01-11T16:12:06.648Z,-1.69
2024-01-11T16:14:34.679Z,-1.83
2024-01-11T16:17:24.693Z,-2.03
2024-01-11T16:20:01.071Z,-1.93
2024-01-11T16:23:04.409Z,-1.88
2024-01-11T16:26:31.596Z,-1.78
2024-01-11T16:29:02.631Z,-1.78
2024-01-11T16:31:48.630Z,-2.16
2024-01-11T16:34:29.597Z,-1.94
2024-01-11T16:36:56.648Z,-2.10
2024-01-11T16:39:24.189Z,-2.02
2024-01-11T16:41:51.384Z,-2.08
2024-01-11T16:44:25.657Z,-2.05
2024-01-11T16:46:54.729Z,-1.80
2024-01-11T16:49:28.326Z,-1.96
2024-01-11T16:52:02.252Z,-2.03
2024-01-11T16:54:38.983Z,-1.84
2024-01-11T16:57:06.319Z,-1.81
2024-01-11T16:59:34.456Z,-1.75
2024-01-11T17:02:01.731Z,-1.74
2024-01-11T17:04:30.479Z,-1.59
2024-01-11T17:06:57.598Z,-1.91
2024-01-11T17:09:24.601Z,-1.92
2024-01-11T17:11:52.775Z,-1.87
2024-01-11T17:14:19.927Z,-2.13
2024-01-11T17:16:49.434Z,-1.84
2024-01-11T17:19:16.454Z,-2.07
2024-01-11T17:21:48.045Z,-1.97
2024-01-11T17:24:15.062Z,-2.00
2024-01-11T17:26:42.535Z,-2.01
2024-01-11T17:29:09.602Z,-2.04
2024-01-11T17:31:45.472Z,-2.21
2024-01-11T17:34:12.608Z,-2.20
2024-01-11T17:36:39.974Z,-2.19
2024-01-11T17:39:08.814Z,-2.18
2024-01-11T17:41:41.398Z,-2.36
2024-01-11T17:44:09.194Z,-2.36
2024-01-11T17:46:37.886Z,-2.28
2024-01-11T17:49:07.348Z,-2.31
2024-01-11T17:51:34.407Z,-2.24
2024-01-11T17:54:01.362Z,-2.02
2024-01-11T17:56:28.784Z,-2.11
2024-01-11T17:58:56.659Z,-2.21
2024-01-11T18:01:26.494Z,-2.07
2024-01-11T18:03:53.738Z,-2.15
2024-01-11T18:06:20.917Z,-2.03
2024-01-11T18:08:48.251Z,-2.03
2024-01-11T18:11:15.522Z,-2.03
2024-01-11T18:13:42.571Z,-2.00
2024-01-11T18:16:09.818Z,-2.08
2024-01-11T18:18:37.205Z,-2.03
2024-01-11T18:21:05.210Z,-1.98
2024-01-11T18:23:32.615Z,-2.03
2024-01-11T18:25:59.645Z,-1.96
2024-01-11T18:28:26.836Z,-2.01
2024-01-11T18:30:53.778Z,-2.05
2024-01-11T18:33:20.779Z,-2.07
2024-01-11T18:35:48.819Z,-2.08
2024-01-11T18:38:16.319Z,-1.93
2024-01-11T18:40:43.419Z,-1.80
2024-01-11T18:43:10.499Z,-1.73
2024-01-11T18:45:37.515Z,-1.91
2024-01-11T18:48:12.724Z,-2.09
2024-01-11T18:50:40.346Z,-2.20
2024-01-11T18:53:07.837Z,-2.28
2024-01-11T18:55:35.180Z,-2.34
2024-01-11T18:58:03.486Z,-2.10
2024-01-11T19:00:32.424Z,-2.10
2024-01-11T19:02:59.952Z,-1.89
2024-01-11T19:05:27.170Z,-1.98
2024-01-11T19:07:54.699Z,-2.04
2024-01-11T19:10:21.785Z,-2.05
2024-01-11T19:12:49.265Z,-2.01
2024-01-11T19:15:16.352Z,-1.98
2024-01-11T19:17:43.767Z,-2.02
2024-01-11T19:20:11.191Z,-2.04
2024-01-11T19:22:38.274Z,-2.03
2024-01-11T19:25:06.192Z,-2.02
2024-01-11T19:27:34.272Z,-2.07
2024-01-11T19:30:08.838Z,-2.05
2024-01-11T19:32:44.895Z,-1.97
2024-01-11T19:35:12.325Z,-1.80
2024-01-11T19:37:40.849Z,-1.83
2024-01-11T19:40:08.948Z,-1.86
2024-01-11T19:42:36.324Z,-1.66
2024-01-11T19:45:03.963Z,-1.72
2024-01-11T19:47:31.625Z,-1.66
2024-01-11T19:49:58.784Z,-1.59
2024-01-11T19:52:25.861Z,-1.72
2024-01-11T19:54:53.115Z,-1.80
2024-01-11T19:57:20.422Z,-1.79
2024-01-11T19:59:47.576Z,-1.94
2024-01-11T20:04:34.841Z,-1.98
2024-01-11T20:07:03.534Z,-2.08
2024-01-11T20:09:30.888Z,-2.15
2024-01-11T20:11:57.925Z,-2.16
2024-01-11T20:14:25.487Z,-1.96
2024-01-11T20:16:52.812Z,-1.88
2024-01-11T20:19:19.997Z,-1.68
2024-01-11T20:21:47.203Z,-1.61
2024-01-11T20:24:14.436Z,-1.77
2024-01-11T20:26:41.549Z,-1.64
2024-01-11T20:29:11.036Z,-0.39
2024-01-11T20:31:39.118Z,-1.25
2024-01-11T20:34:08.531Z,-1.47
2024-01-11T20:36:35.985Z,-1.64
2024-01-11T20:39:05.666Z,-1.58
2024-01-11T20:41:33.628Z,-1.64
2024-01-11T20:44:01.026Z,-1.67
2024-01-11T20:46:27.926Z,-1.69
2024-01-11T20:48:55.115Z,-1.73
2024-01-11T20:51:22.812Z,-1.65
2024-01-11T20:53:51.304Z,-1.91
2024-01-11T20:56:18.426Z,-1.94
2024-01-11T20:58:46.072Z,-2.07
2024-01-11T21:01:13.514Z,-1.96
2024-01-11T21:03:41.061Z,-2.07
2024-01-11T21:06:10.779Z,-1.98
2024-01-11T21:08:37.932Z,-1.96
2024-01-11T21:11:05.390Z,-2.21
2024-01-11T21:13:32.469Z,-2.06
2024-01-11T21:16:00.049Z,-2.02
2024-01-11T21:18:28.584Z,-2.16
2024-01-11T21:20:59.545Z,-2.25
2024-01-11T21:23:26.796Z,-2.09
2024-01-11T21:25:53.953Z,-2.04
2024-01-11T21:28:21.050Z,-2.03
2024-01-11T21:30:50.570Z,-2.02
2024-01-11T21:33:18.133Z,-2.13
2024-01-11T21:35:46.706Z,-2.21
2024-01-11T21:38:15.447Z,-2.18
2024-01-11T21:40:43.034Z,-2.13
2024-01-11T21:43:10.201Z,-2.25
2024-01-11T21:45:38.044Z,-2.36
2024-01-11T21:48:05.912Z,-2.62
2024-01-11T21:50:33.289Z,-2.50
2024-01-11T21:53:00.597Z,-2.30
2024-01-11T21:55:27.916Z,-2.44
2024-01-11T21:57:55.984Z,-2.58
2024-01-11T22:00:23.424Z,-2.76
2024-01-11T22:02:50.764Z,-2.78
2024-01-11T22:05:18.150Z,-2.77
2024-01-11T22:07:45.216Z,-2.81
2024-01-11T22:10:12.268Z,-2.63
2024-01-11T22:12:39.761Z,-2.53
2024-01-11T22:15:09.170Z,-2.69
2024-01-11T22:17:36.874Z,-2.61
2024-01-11T22:20:04.147Z,-2.55
2024-01-11T22:22:31.304Z,-2.53
2024-01-11T22:24:58.309Z,-2.71
2024-01-11T22:27:26.192Z,-2.75
2024-01-11T22:29:53.310Z,-2.70
2024-01-11T22:32:20.688Z,-2.50
2024-01-11T22:34:47.746Z,-2.59
2024-01-11T22:37:15.128Z,-2.46
2024-01-11T22:39:42.794Z,-2.49
2024-01-11T22:42:09.822Z,-2.69
2024-01-11T22:44:36.996Z,-2.50
2024-01-11T22:47:04.391Z,-2.48
2024-01-11T22:49:31.463Z,-2.53
2024-01-11T22:51:58.867Z,-2.54
2024-01-11T22:54:26.061Z,-2.35
2024-01-11T22:56:56.861Z,-2.48
2024-01-11T22:59:24.049Z,-2.51
2024-01-11T23:01:51.662Z,-2.59
2024-01-11T23:04:18.596Z,-2.48
2024-01-11T23:06:45.704Z,-2.43
2024-01-11T23:09:13.002Z,-2.41
2024-01-11T23:11:40.394Z,-2.39
2024-01-11T23:14:09.639Z,-2.61
2024-01-11T23:16:37.636Z,-2.68
2024-01-11T23:19:04.798Z,-2.47
2024-01-11T23:21:32.279Z,-2.66
2024-01-11T23:23:59.455Z,-2.66
2024-01-11T23:26:26.505Z,-2.62
2024-01-11T23:28:53.759Z,-2.50
2024-01-11T23:31:21.146Z,-2.46
2024-01-11T23:33:48.361Z,-2.60
2024-01-11T23:36:15.611Z,-2.48
2024-01-11T23:38:42.742Z,-2.48
2024-01-11T23:41:09.887Z,-2.46
2024-01-11T23:43:37.916Z,-2.57
2024-01-11T23:46:05.370Z,-2.77
2024-01-11T23:48:38.132Z,-2.92
2024-01-11T23:51:05.828Z,-2.86
2024-01-11T23:53:32.959Z,-2.84
2024-01-11T23:56:00.356Z,-2.85
2024-01-11T23:58:27.361Z,-2.64
